createdAt,value
2023-07-22T00:00:31.017Z,56.65
2023-07-22T00:02:59.028Z,56.84
2023-07-22T00:05:27.096Z,56.83
2023-07-22T00:07:56.204Z,57.08
2023-07-22T00:10:23.946Z,57.06
2023-07-22T00:12:52.128Z,57.12
2023-07-22T00:15:21.574Z,57.28
2023-07-22T00:17:49.473Z,57.28
2023-07-22T00:20:17.733Z,57.15
2023-07-22T00:22:45.495Z,57.55
2023-07-22T00:25:14.884Z,57.31
2023-07-22T00:27:44.752Z,57.71
2023-07-22T00:30:13.058Z,57.75
2023-07-22T00:32:42.341Z,57.80
2023-07-22T00:35:11.335Z,57.76
2023-07-22T00:37:39.103Z,57.98
2023-07-22T00:40:13.198Z,58.04
2023-07-22T00:42:42.805Z,58.09
2023-07-22T00:45:10.798Z,58.23
2023-07-22T00:47:39.153Z,58.13
2023-07-22T00:50:09.822Z,58.39
2023-07-22T00:52:37.804Z,58.63
2023-07-22T00:55:07.091Z,58.41
2023-07-22T00:57:34.950Z,58.45
2023-07-22T01:00:05.926Z,58.70
2023-07-22T01:02:35.818Z,58.83
2023-07-22T01:05:03.895Z,58.76
2023-07-22T01:07:31.661Z,58.91
2023-07-22T01:10:00.335Z,58.84
2023-07-22T01:12:28.129Z,58.91
2023-07-22T01:14:56.025Z,59.05
2023-07-22T01:17:25.900Z,58.90
2023-07-22T01:19:55.087Z,59.00
2023-07-22T01:22:24.894Z,59.09
2023-07-22T01:24:54.625Z,59.42
2023-07-22T01:27:22.479Z,59.32
2023-07-22T01:29:53.545Z,59.37
2023-07-22T01:32:22.131Z,59.49
2023-07-22T01:34:49.944Z,59.65
2023-07-22T01:37:17.733Z,59.59
2023-07-22T01:39:45.570Z,59.35
2023-07-22T01:42:14.720Z,59.92
2023-07-22T01:44:42.646Z,59.78
2023-07-22T01:47:10.471Z,59.78
2023-07-22T01:49:38.249Z,59.72
2023-07-22T01:52:06.907Z,59.76
2023-07-22T01:54:34.628Z,59.82
2023-07-22T01:57:02.393Z,59.89
2023-07-22T01:59:31.597Z,60.42
2023-07-22T02:01:59.402Z,59.99
2023-07-22T02:04:27.528Z,60.28
2023-07-22T02:06:55.573Z,60.28
2023-07-22T02:09:23.390Z,60.63
2023-07-22T02:11:51.160Z,60.33
2023-07-22T02:14:18.961Z,60.72
2023-07-22T02:16:48.366Z,60.42
2023-07-22T02:19:16.671Z,60.71
2023-07-22T02:21:44.484Z,60.58
2023-07-22T02:24:12.551Z,60.95
2023-07-22T02:26:40.399Z,60.67
2023-07-22T02:29:14.100Z,60.83
2023-07-22T02:31:46.138Z,61.15
2023-07-22T02:34:17.638Z,61.11
2023-07-22T02:36:45.774Z,61.06
2023-07-22T02:39:13.612Z,60.95
2023-07-22T02:41:41.701Z,61.09
2023-07-22T02:44:10.186Z,61.34
2023-07-22T02:46:38.197Z,61.46
2023-07-22T02:49:06.341Z,61.59
2023-07-22T02:51:35.555Z,61.68
2023-07-22T02:54:04.773Z,61.54
2023-07-22T02:56:32.675Z,61.57
2023-07-22T02:59:00.484Z,61.69
2023-07-22T03:01:28.419Z,61.84
2023-07-22T03:03:56.214Z,61.86
2023-07-22T03:06:24.020Z,62.03
2023-07-22T03:08:55.549Z,62.05
2023-07-22T03:11:26.137Z,62.08
2023-07-22T03:13:54.721Z,62.00
2023-07-22T03:16:22.652Z,62.34
2023-07-22T03:18:50.462Z,62.10
2023-07-22T03:21:19.313Z,62.47
2023-07-22T03:23:47.164Z,62.63
2023-07-22T03:26:16.645Z,62.54
2023-07-22T03:28:44.486Z,62.53
2023-07-22T03:31:12.414Z,62.59
2023-07-22T03:33:41.156Z,62.36
2023-07-22T03:36:09.009Z,62.61
2023-07-22T03:38:37.056Z,62.81
2023-07-22T03:41:05.204Z,62.80
2023-07-22T03:43:34.346Z,62.89
2023-07-22T03:46:02.179Z,62.79
2023-07-22T03:48:30.039Z,63.00
2023-07-22T03:51:12.116Z,63.09
2023-07-22T03:53:44.598Z,63.19
2023-07-22T03:56:12.345Z,63.28
2023-07-22T03:58:41.465Z,63.28
2023-07-22T04:01:09.287Z,63.31
2023-07-22T04:03:37.283Z,63.33
2023-07-22T04:06:05.617Z,63.43
2023-07-22T04:08:33.683Z,63.56
2023-07-22T04:11:01.474Z,63.58
2023-07-22T04:13:29.474Z,63.83
2023-07-22T04:15:58.690Z,63.83
2023-07-22T04:18:26.587Z,63.74
2023-07-22T04:20:58.530Z,63.99
2023-07-22T04:23:26.846Z,63.80
2023-07-22T04:25:54.814Z,63.92
2023-07-22T04:28:22.662Z,64.07
2023-07-22T04:30:59.457Z,64.06
2023-07-22T04:33:28.154Z,64.43
2023-07-22T04:35:57.731Z,64.44
2023-07-22T04:38:25.545Z,64.15
2023-07-22T04:40:53.660Z,64.30
2023-07-22T04:43:23.252Z,64.63
2023-07-22T04:45:51.379Z,64.66
2023-07-22T04:48:24.307Z,64.67
2023-07-22T04:50:52.226Z,64.64
2023-07-22T04:53:20.298Z,64.51
2023-07-22T04:55:48.235Z,64.80
2023-07-22T04:58:16.051Z,64.94
2023-07-22T05:00:44.565Z,64.96
2023-07-22T05:03:12.636Z,65.05
2023-07-22T05:05:41.970Z,64.61
2023-07-22T05:08:09.902Z,64.97
2023-07-22T05:10:39.094Z,65.17
2023-07-22T05:13:06.964Z,65.09
2023-07-22T05:15:34.755Z,65.09
2023-07-22T05:18:02.633Z,65.08
2023-07-22T05:20:30.460Z,64.99
2023-07-22T05:23:00.978Z,65.21
2023-07-22T05:25:28.834Z,65.20
2023-07-22T05:27:56.695Z,65.12
2023-07-22T05:30:34.115Z,65.12
2023-07-22T05:33:02.581Z,65.50
2023-07-22T05:35:31.138Z,65.31
2023-07-22T05:38:00.530Z,65.50
2023-07-22T05:40:28.394Z,65.42
2023-07-22T05:42:56.322Z,65.46
2023-07-22T05:45:24.143Z,65.19
2023-07-22T05:47:51.976Z,65.58
2023-07-22T05:50:19.792Z,65.52
2023-07-22T05:52:48.952Z,65.63
2023-07-22T05:55:18.269Z,65.26
2023-07-22T05:57:46.065Z,65.59
2023-07-22T06:00:15.156Z,65.46
2023-07-22T06:02:43.236Z,65.66
2023-07-22T06:05:11.170Z,65.51
2023-07-22T06:07:39.015Z,66.05
2023-07-22T06:10:08.207Z,65.46
2023-07-22T06:12:38.119Z,65.49
2023-07-22T06:15:06.745Z,65.57
2023-07-22T06:17:34.822Z,65.60
2023-07-22T06:20:03.557Z,65.47
2023-07-22T06:22:31.288Z,65.48
2023-07-22T06:24:59.252Z,65.71
2023-07-22T06:27:27.177Z,65.65
2023-07-22T06:29:56.360Z,65.79
2023-07-22T06:32:24.342Z,65.62
2023-07-22T06:34:52.238Z,65.52
2023-07-22T06:37:20.105Z,65.62
2023-07-22T06:39:47.893Z,65.71
2023-07-22T06:42:15.893Z,65.78
2023-07-22T06:44:43.731Z,65.66
2023-07-22T06:47:12.878Z,65.73
2023-07-22T06:49:42.060Z,65.58
2023-07-22T06:52:10.866Z,65.58
2023-07-22T06:54:38.668Z,65.61
2023-07-22T06:57:07.331Z,65.66
2023-07-22T06:59:35.202Z,65.66
2023-07-22T07:02:05.851Z,65.59
2023-07-22T07:04:35.377Z,65.66
2023-07-22T07:07:03.749Z,65.39
2023-07-22T07:09:31.581Z,65.60
2023-07-22T07:11:59.383Z,65.84
2023-07-22T07:14:27.141Z,65.51
2023-07-22T07:16:55.077Z,65.42
2023-07-22T07:19:23.194Z,65.46
2023-07-22T07:21:52.341Z,65.48
2023-07-22T07:24:20.195Z,65.49
2023-07-22T07:26:48.352Z,65.42
2023-07-22T07:29:32.903Z,65.34
2023-07-22T07:32:04.423Z,65.24
2023-07-22T07:34:32.340Z,65.43
2023-07-22T07:37:01.457Z,65.34
2023-07-22T07:39:29.257Z,65.59
2023-07-22T07:41:57.139Z,65.28
2023-07-22T07:44:25.089Z,65.27
2023-07-22T07:46:52.875Z,65.36
2023-07-22T07:49:20.740Z,65.41
2023-07-22T07:51:48.709Z,65.32
2023-07-22T07:54:18.132Z,65.00
2023-07-22T07:56:45.961Z,65.24
2023-07-22T07:59:13.793Z,65.13
2023-07-22T08:01:43.124Z,65.14
2023-07-22T08:04:11.838Z,65.18
2023-07-22T08:06:39.833Z,65.14
2023-07-22T08:09:07.593Z,65.02
2023-07-22T08:11:36.740Z,65.18
2023-07-22T08:14:04.725Z,65.38
2023-07-22T08:16:32.567Z,65.00
2023-07-22T08:19:00.334Z,64.96
2023-07-22T08:21:28.092Z,65.02
2023-07-22T08:23:56.006Z,64.81
2023-07-22T08:26:23.782Z,64.89
2023-07-22T08:28:52.881Z,64.87
2023-07-22T08:31:20.668Z,64.71
2023-07-22T08:33:48.612Z,64.79
2023-07-22T08:36:16.659Z,64.57
2023-07-22T08:38:44.520Z,64.69
2023-07-22T08:41:17.174Z,64.51
2023-07-22T08:43:47.172Z,64.52
2023-07-22T08:46:17.945Z,64.49
2023-07-22T08:48:49.721Z,64.24
2023-07-22T08:51:19.442Z,64.49
2023-07-22T08:54:00.895Z,64.43
2023-07-22T08:56:37.090Z,64.35
2023-07-22T08:59:07.066Z,64.30
2023-07-22T09:01:37.151Z,64.38
2023-07-22T09:04:05.975Z,64.20
2023-07-22T09:06:34.655Z,64.17
2023-07-22T09:09:08.004Z,64.04
2023-07-22T09:11:37.117Z,64.19
2023-07-22T09:14:05.349Z,64.04
2023-07-22T09:16:34.431Z,63.95
2023-07-22T09:19:05.673Z,63.87
2023-07-22T09:21:36.920Z,63.88
2023-07-22T09:24:22.835Z,63.67
2023-07-22T09:26:50.978Z,63.83
2023-07-22T09:29:19.256Z,63.75
2023-07-22T09:31:54.487Z,63.61
2023-07-22T09:34:24.009Z,63.28
2023-07-22T09:36:54.231Z,63.67
2023-07-22T09:39:22.240Z,63.43
2023-07-22T09:41:50.253Z,63.25
2023-07-22T09:44:18.322Z,63.05
2023-07-22T09:46:50.135Z,63.16
2023-07-22T09:49:19.834Z,63.02
2023-07-22T09:52:01.939Z,63.11
2023-07-22T09:54:31.961Z,62.92
2023-07-22T09:57:00.450Z,63.09
2023-07-22T09:59:31.318Z,62.68
2023-07-22T10:02:03.731Z,62.77
2023-07-22T10:04:35.719Z,62.53
2023-07-22T10:07:06.008Z,62.62
2023-07-22T10:09:37.577Z,62.45
2023-07-22T10:12:05.924Z,62.37
2023-07-22T10:14:36.987Z,62.19
2023-07-22T10:17:07.419Z,62.24
2023-07-22T10:19:35.353Z,61.69
2023-07-22T10:22:05.822Z,61.65
2023-07-22T10:24:45.431Z,61.78
2023-07-22T10:27:14.149Z,61.66
2023-07-22T10:29:42.117Z,61.47
2023-07-22T10:32:10.219Z,61.04
2023-07-22T10:34:38.004Z,61.12
2023-07-22T10:37:07.520Z,60.87
2023-07-22T10:39:35.348Z,61.25
2023-07-22T10:42:05.580Z,60.49
2023-07-22T10:44:34.783Z,60.73
2023-07-22T10:47:04.773Z,60.04
2023-07-22T10:49:46.241Z,60.11
2023-07-22T10:52:15.888Z,60.29
2023-07-22T10:54:43.822Z,60.05
2023-07-22T10:57:30.302Z,59.56
2023-07-22T10:59:58.536Z,59.63
2023-07-22T11:02:27.875Z,59.09
2023-07-22T11:04:59.589Z,58.88
2023-07-22T11:07:36.629Z,58.95
2023-07-22T11:10:17.455Z,58.95
2023-07-22T11:12:46.845Z,58.85
2023-07-22T11:15:17.532Z,58.45
2023-07-22T11:17:45.396Z,58.57
2023-07-22T11:20:13.383Z,57.78
2023-07-22T11:22:44.845Z,58.07
2023-07-22T11:25:19.257Z,58.00
2023-07-22T11:27:47.587Z,57.44
2023-07-22T11:30:15.558Z,57.30
2023-07-22T11:32:45.589Z,57.36
2023-07-22T11:35:13.429Z,57.22
2023-07-22T11:37:43.229Z,56.73
2023-07-22T11:40:15.073Z,56.79
2023-07-22T11:42:43.044Z,56.86
2023-07-22T11:45:11.511Z,56.52
2023-07-22T11:47:39.651Z,55.96
2023-07-22T11:50:08.869Z,55.89
2023-07-22T11:52:36.704Z,55.75
2023-07-22T11:55:06.623Z,55.47
2023-07-22T11:57:34.467Z,55.60
2023-07-22T12:00:02.316Z,55.41
2023-07-22T12:02:31.041Z,55.46
2023-07-22T12:05:01.421Z,55.10
2023-07-22T12:07:30.900Z,54.72
2023-07-22T12:10:01.008Z,54.63
2023-07-22T12:12:37.340Z,53.96
2023-07-22T12:15:07.767Z,54.33
2023-07-22T12:17:49.662Z,54.06
2023-07-22T12:20:18.246Z,54.16
2023-07-22T12:22:46.742Z,53.80
2023-07-22T12:25:15.174Z,53.58
2023-07-22T12:27:45.813Z,53.77
2023-07-22T12:30:13.846Z,53.11
2023-07-22T12:32:41.737Z,53.13
2023-07-22T12:35:10.063Z,53.23
2023-07-22T12:37:38.359Z,52.96
2023-07-22T12:40:09.666Z,52.62
2023-07-22T12:42:38.110Z,52.38
2023-07-22T12:45:09.071Z,52.13
2023-07-22T12:47:38.214Z,52.16
2023-07-22T12:50:08.803Z,52.20
2023-07-22T12:52:36.788Z,52.20
2023-07-22T12:55:05.225Z,51.91
2023-07-22T12:57:32.979Z,51.46
2023-07-22T13:00:00.743Z,51.17
2023-07-22T13:02:29.943Z,50.94
2023-07-22T13:04:57.989Z,50.79
2023-07-22T13:07:25.801Z,50.47
2023-07-22T13:09:57.664Z,50.55
2023-07-22T13:12:25.525Z,50.74
2023-07-22T13:14:53.343Z,50.60
2023-07-22T13:17:21.116Z,50.35
2023-07-22T13:19:50.215Z,50.04
2023-07-22T13:22:18.115Z,49.93
2023-07-22T13:24:46.004Z,49.96
2023-07-22T13:27:13.901Z,49.99
2023-07-22T13:29:41.640Z,49.12
2023-07-22T13:32:10.070Z,49.25
2023-07-22T13:34:37.906Z,49.13
2023-07-22T13:37:07.725Z,49.04
2023-07-22T13:39:35.763Z,48.91
2023-07-22T13:42:03.724Z,48.56
2023-07-22T13:44:32.025Z,48.55
2023-07-22T13:46:59.982Z,48.36
2023-07-22T13:49:27.940Z,48.27
2023-07-22T13:51:55.773Z,48.37
2023-07-22T13:54:24.950Z,48.32
2023-07-22T13:56:52.764Z,48.12
2023-07-22T13:59:20.528Z,47.87
2023-07-22T14:01:48.349Z,48.16
2023-07-22T14:04:16.172Z,47.91
2023-07-22T14:06:43.913Z,47.84
2023-07-22T14:09:11.717Z,47.82
2023-07-22T14:11:42.739Z,47.97
2023-07-22T14:14:10.630Z,47.74
2023-07-22T14:16:38.532Z,47.30
2023-07-22T14:19:06.415Z,47.30
2023-07-22T14:21:34.176Z,47.27
2023-07-22T14:24:02.055Z,47.32
2023-07-22T14:26:29.883Z,47.22
2023-07-22T14:28:59.029Z,47.23
2023-07-22T14:31:27.415Z,46.98
2023-07-22T14:33:55.454Z,46.78
2023-07-22T14:36:23.306Z,46.40
2023-07-22T14:38:51.057Z,46.65
2023-07-22T14:41:18.951Z,46.47
2023-07-22T14:43:46.743Z,46.18
2023-07-22T14:46:16.107Z,46.11
2023-07-22T14:48:46.184Z,45.72
2023-07-22T14:51:14.033Z,45.83
2023-07-22T14:53:42.183Z,45.82
2023-07-22T14:56:10.040Z,45.76
2023-07-22T14:58:37.817Z,45.65
2023-07-22T15:01:05.645Z,45.75
2023-07-22T15:03:34.816Z,45.27
2023-07-22T15:06:02.695Z,45.35
2023-07-22T15:08:30.547Z,45.30
2023-07-22T15:10:58.556Z,45.10
2023-07-22T15:13:26.484Z,45.09
2023-07-22T15:15:56.022Z,44.96
2023-07-22T15:18:24.037Z,44.88
2023-07-22T15:20:54.226Z,44.84
2023-07-22T15:23:24.713Z,44.57
2023-07-22T15:25:53.124Z,44.61
2023-07-22T15:28:21.862Z,44.55
2023-07-22T15:30:49.752Z,44.59
2023-07-22T15:33:17.973Z,44.60
2023-07-22T15:35:45.799Z,44.58
2023-07-22T15:38:15.008Z,44.39
2023-07-22T15:40:42.854Z,44.47
2023-07-22T15:43:10.816Z,44.51
2023-07-22T15:45:38.808Z,44.42
2023-07-22T15:48:07.111Z,44.48
2023-07-22T15:50:35.027Z,44.55
2023-07-22T15:53:02.956Z,44.61
2023-07-22T15:55:32.267Z,44.88
2023-07-22T15:58:00.157Z,44.71
2023-07-22T16:00:27.975Z,44.76
2023-07-22T16:02:55.924Z,44.78
2023-07-22T16:05:24.164Z,44.53
2023-07-22T16:07:51.967Z,44.59
2023-07-22T16:10:19.876Z,44.61
2023-07-22T16:12:48.993Z,44.71
2023-07-22T16:15:16.882Z,44.54
2023-07-22T16:17:44.993Z,44.73
2023-07-22T16:20:13.714Z,44.64
2023-07-22T16:22:41.575Z,44.69
2023-07-22T16:25:10.511Z,44.77
2023-07-22T16:27:38.272Z,44.67
2023-07-22T16:30:09.780Z,44.62
2023-07-22T16:32:37.694Z,44.60
2023-07-22T16:35:07.632Z,44.62
2023-07-22T16:37:35.834Z,44.76
2023-07-22T16:40:05.559Z,44.65
2023-07-22T16:42:33.368Z,44.48
2023-07-22T16:45:01.465Z,44.66
2023-07-22T16:47:30.653Z,44.61
2023-07-22T16:49:58.556Z,44.54
2023-07-22T16:52:26.483Z,44.46
2023-07-22T16:54:54.227Z,44.59
2023-07-22T16:57:21.963Z,44.57
2023-07-22T16:59:49.881Z,44.44
2023-07-22T17:02:17.712Z,44.35
2023-07-22T17:04:46.886Z,44.69
2023-07-22T17:07:16.054Z,44.58
2023-07-22T17:09:43.890Z,44.66
2023-07-22T17:12:11.716Z,44.59
2023-07-22T17:14:39.520Z,44.62
2023-07-22T17:17:07.978Z,44.57
2023-07-22T17:19:35.759Z,44.47
2023-07-22T17:22:05.403Z,44.59
2023-07-22T17:24:33.293Z,44.52
2023-07-22T17:27:01.140Z,44.55
2023-07-22T17:29:29.054Z,44.54
2023-07-22T17:31:56.857Z,44.60
2023-07-22T17:34:24.698Z,44.56
2023-07-22T17:36:52.467Z,44.62
2023-07-22T17:39:21.574Z,44.57
2023-07-22T17:41:49.391Z,44.48
2023-07-22T17:44:18.774Z,44.64
2023-07-22T17:46:46.641Z,44.70
2023-07-22T17:49:14.578Z,44.26
2023-07-22T17:51:42.326Z,44.73
2023-07-22T17:54:10.380Z,44.70
2023-07-22T17:56:39.590Z,44.72
2023-07-22T17:59:07.392Z,44.70
2023-07-22T18:01:35.417Z,44.85
2023-07-22T18:04:03.324Z,44.63
2023-07-22T18:06:32.258Z,44.85
2023-07-22T18:09:00.098Z,44.88
2023-07-22T18:11:28.296Z,44.92
2023-07-22T18:13:58.532Z,44.96
2023-07-22T18:16:26.578Z,44.88
2023-07-22T18:18:54.728Z,45.11
2023-07-22T18:21:25.971Z,44.88
2023-07-22T18:23:54.038Z,44.96
2023-07-22T18:26:21.841Z,45.03
2023-07-22T18:28:49.681Z,45.11
2023-07-22T18:31:21.004Z,45.11
2023-07-22T18:33:50.099Z,45.12
2023-07-22T18:36:18.028Z,45.06
2023-07-22T18:38:46.423Z,45.12
2023-07-22T18:41:14.679Z,45.21
2023-07-22T18:43:42.448Z,45.15
2023-07-22T18:46:17.895Z,45.24
2023-07-22T18:48:47.737Z,45.27
2023-07-22T18:51:16.176Z,45.38
2023-07-22T18:53:44.090Z,45.43
2023-07-22T18:56:11.855Z,45.42
2023-07-22T18:58:39.616Z,45.46
2023-07-22T19:01:07.489Z,45.39
2023-07-22T19:03:35.378Z,45.52
2023-07-22T19:06:04.676Z,45.46
2023-07-22T19:08:32.577Z,45.54
2023-07-22T19:11:00.399Z,45.54
2023-07-22T19:13:28.150Z,45.59
2023-07-22T19:15:56.585Z,45.58
2023-07-22T19:18:24.414Z,45.55
2023-07-22T19:21:00.014Z,45.57
2023-07-22T19:23:30.102Z,45.67
2023-07-22T19:25:58.897Z,45.74
2023-07-22T19:28:26.885Z,45.43
2023-07-22T19:30:55.724Z,45.66
2023-07-22T19:33:23.634Z,45.78
2023-07-22T19:36:01.523Z,45.76
2023-07-22T19:38:31.123Z,45.92
2023-07-22T19:41:06.724Z,45.81
2023-07-22T19:43:34.826Z,46.03
2023-07-22T19:46:04.274Z,45.83
2023-07-22T19:48:33.429Z,46.04
2023-07-22T19:51:01.754Z,45.88
2023-07-22T19:53:31.171Z,46.02
2023-07-22T19:56:00.705Z,46.02
2023-07-22T19:58:28.582Z,46.00
2023-07-22T20:00:58.657Z,45.95
2023-07-22T20:03:26.549Z,46.19
2023-07-22T20:05:55.102Z,46.08
2023-07-22T20:08:23.051Z,45.98
2023-07-22T20:10:52.937Z,45.91
2023-07-22T20:13:21.404Z,46.01
2023-07-22T20:15:50.570Z,46.27
2023-07-22T20:18:18.456Z,46.42
2023-07-22T20:20:46.279Z,46.16
2023-07-22T20:23:14.047Z,46.16
2023-07-22T20:25:42.014Z,46.33
2023-07-22T20:28:11.185Z,46.56
2023-07-22T20:30:39.101Z,46.17
2023-07-22T20:33:06.975Z,46.34
2023-07-22T20:35:34.878Z,46.25
2023-07-22T20:38:02.895Z,46.31
2023-07-22T20:40:30.746Z,46.48
2023-07-22T20:42:58.585Z,46.69
2023-07-22T20:45:27.748Z,46.30
2023-07-22T20:47:55.847Z,46.48
2023-07-22T20:50:23.724Z,46.96
2023-07-22T20:52:51.514Z,46.73
2023-07-22T20:55:19.357Z,46.87
2023-07-22T20:57:47.225Z,46.92
2023-07-22T21:00:15.741Z,46.64
2023-07-22T21:02:44.940Z,46.93
2023-07-22T21:05:13.145Z,47.22
2023-07-22T21:07:41.369Z,47.26
2023-07-22T21:10:10.603Z,46.84
2023-07-22T21:12:38.413Z,46.88
2023-07-22T21:15:07.401Z,47.25
2023-07-22T21:17:35.182Z,47.28
2023-07-22T21:20:04.810Z,47.34
2023-07-22T21:22:32.929Z,47.26
2023-07-22T21:25:00.718Z,47.21
2023-07-22T21:27:34.533Z,47.48
2023-07-22T21:30:11.478Z,47.23
2023-07-22T21:32:39.305Z,47.56
2023-07-22T21:35:09.139Z,47.54
2023-07-22T21:37:36.978Z,47.69
2023-07-22T21:40:06.508Z,47.57
2023-07-22T21:42:34.303Z,47.63
2023-07-22T21:45:02.900Z,47.51
2023-07-22T21:47:30.720Z,47.71
2023-07-22T21:49:58.729Z,48.00
2023-07-22T21:52:27.904Z,48.12
2023-07-22T21:54:55.870Z,48.03
2023-07-22T21:57:23.708Z,47.85
2023-07-22T21:59:51.505Z,47.87
2023-07-22T22:02:19.464Z,47.94
2023-07-22T22:04:47.422Z,48.29
2023-07-22T22:07:15.322Z,48.05
2023-07-22T22:09:44.549Z,48.22
2023-07-22T22:12:12.498Z,48.03
2023-07-22T22:14:40.346Z,48.16
2023-07-22T22:17:08.243Z,48.59
2023-07-22T22:19:36.023Z,48.57
2023-07-22T22:22:03.802Z,48.29
2023-07-22T22:24:33.182Z,48.75
2023-07-22T22:27:02.463Z,48.38
2023-07-22T22:29:30.497Z,48.83
2023-07-22T22:31:58.290Z,48.97
2023-07-22T22:34:26.116Z,48.64
2023-07-22T22:36:53.924Z,49.04
2023-07-22T22:39:21.718Z,48.86
2023-07-22T22:41:49.550Z,49.01
2023-07-22T22:44:18.686Z,49.00
2023-07-22T22:46:48.402Z,49.00
2023-07-22T22:49:16.326Z,49.16
2023-07-22T22:51:44.097Z,49.28
2023-07-22T22:54:11.963Z,49.08
2023-07-22T22:56:39.787Z,49.47
2023-07-22T22:59:10.519Z,49.43
2023-07-22T23:01:40.296Z,49.45
2023-07-22T23:04:08.115Z,49.42
2023-07-22T23:06:35.900Z,49.59
2023-07-22T23:09:03.770Z,49.81
2023-07-22T23:11:31.579Z,49.81
2023-07-22T23:13:59.999Z,49.86
2023-07-22T23:16:28.113Z,49.67
2023-07-22T23:18:57.310Z,49.82
2023-07-22T23:21:25.069Z,50.18
2023-07-22T23:23:52.933Z,49.98
2023-07-22T23:26:20.739Z,50.02
2023-07-22T23:28:48.545Z,50.44
2023-07-22T23:31:16.676Z,50.16
2023-07-22T23:33:44.506Z,50.45
2023-07-22T23:36:13.704Z,50.21
2023-07-22T23:38:41.491Z,50.50
2023-07-22T23:41:09.755Z,50.47
2023-07-22T23:43:37.669Z,50.88
2023-07-22T23:46:05.438Z,50.62
2023-07-22T23:48:33.859Z,51.03
2023-07-22T23:51:01.652Z,50.98
2023-07-22T23:53:30.780Z,51.02
2023-07-22T23:55:58.665Z,50.89
2023-07-22T23:58:26.436Z,51.18
